sensor_id;sensor_type;location;lat;lon;timestamp;temperature;humidity
10980;DHT22;5543;51.734;8.744;2023-07-31T00:00:00;15.50;99.90
10980;DHT22;5543;51.734;8.744;2023-07-31T00:02:29;15.50;99.90
10980;DHT22;5543;51.734;8.744;2023-07-31T00:04:57;15.50;99.90
10980;DHT22;5543;51.734;8.744;2023-07-31T00:07:26;15.50;99.90
10980;DHT22;5543;51.734;8.744;2023-07-31T00:09:54;15.50;99.90
10980;DHT22;5543;51.734;8.744;2023-07-31T00:12:24;15.50;99.90
10980;DHT22;5543;51.734;8.744;2023-07-31T00:14:52;15.40;99.90
10980;DHT22;5543;51.734;8.744;2023-07-31T00:17:21;15.70;99.90
10980;DHT22;5543;51.734;8.744;2023-07-31T00:19:49;15.60;99.90
10980;DHT22;5543;51.734;8.744;2023-07-31T00:22:18;15.60;99.90
10980;DHT22;5543;51.734;8.744;2023-07-31T00:24:46;15.60;99.90
10980;DHT22;5543;51.734;8.744;2023-07-31T00:27:14;15.50;99.90
10980;DHT22;5543;51.734;8.744;2023-07-31T00:29:43;15.50;99.90
10980;DHT22;5543;51.734;8.744;2023-07-31T00:32:11;15.50;99.90
10980;DHT22;5543;51.734;8.744;2023-07-31T00:34:39;15.60;99.90
10980;DHT22;5543;51.734;8.744;2023-07-31T00:37:07;15.60;99.90
10980;DHT22;5543;51.734;8.744;2023-07-31T00:39:36;15.50;99.90
10980;DHT22;5543;51.734;8.744;2023-07-31T00:42:04;15.50;99.90
10980;DHT22;5543;51.734;8.744;2023-07-31T00:44:33;15.50;99.90
10980;DHT22;5543;51.734;8.744;2023-07-31T00:47:02;15.60;99.90
10980;DHT22;5543;51.734;8.744;2023-07-31T00:49:33;15.60;99.90
10980;DHT22;5543;51.734;8.744;2023-07-31T00:52:01;15.60;99.90
10980;DHT22;5543;51.734;8.744;2023-07-31T00:54:30;15.60;99.90
10980;DHT22;5543;51.734;8.744;2023-07-31T00:56:58;15.60;99.90
10980;DHT22;5543;51.734;8.744;2023-07-31T00:59:26;15.80;99.90
10980;DHT22;5543;51.734;8.744;2023-07-31T01:01:54;15.60;99.90
10980;DHT22;5543;51.734;8.744;2023-07-31T01:04:24;15.60;99.90
10980;DHT22;5543;51.734;8.744;2023-07-31T01:06:56;15.60;99.90
10980;DHT22;5543;51.734;8.744;2023-07-31T01:09:31;15.70;99.90
10980;DHT22;5543;51.734;8.744;2023-07-31T01:12:02;15.70;99.90
10980;DHT22;5543;51.734;8.744;2023-07-31T01:14:31;15.70;99.90
10980;DHT22;5543;51.734;8.744;2023-07-31T01:16:59;15.70;99.90
10980;DHT22;5543;51.734;8.744;2023-07-31T01:19:28;15.70;99.90
10980;DHT22;5543;51.734;8.744;2023-07-31T01:22:12;15.70;99.90
10980;DHT22;5543;51.734;8.744;2023-07-31T01:24:55;15.70;99.90
10980;DHT22;5543;51.734;8.744;2023-07-31T01:27:31;15.80;99.90
10980;DHT22;5543;51.734;8.744;2023-07-31T01:30:07;15.80;99.90
10980;DHT22;5543;51.734;8.744;2023-07-31T01:32:39;15.80;99.90
10980;DHT22;5543;51.734;8.744;2023-07-31T01:35:08;15.80;99.90
10980;DHT22;5543;51.734;8.744;2023-07-31T01:37:37;15.80;99.90
10980;DHT22;5543;51.734;8.744;2023-07-31T01:40:06;15.80;99.90
10980;DHT22;5543;51.734;8.744;2023-07-31T01:42:36;15.80;99.90
10980;DHT22;5543;51.734;8.744;2023-07-31T01:45:05;15.80;99.90
10980;DHT22;5543;51.734;8.744;2023-07-31T01:47:33;15.80;99.90
10980;DHT22;5543;51.734;8.744;2023-07-31T01:50:01;15.90;99.90
10980;DHT22;5543;51.734;8.744;2023-07-31T01:52:30;15.80;99.90
10980;DHT22;5543;51.734;8.744;2023-07-31T01:54:58;15.80;99.90
10980;DHT22;5543;51.734;8.744;2023-07-31T01:57:26;15.80;99.90
10980;DHT22;5543;51.734;8.744;2023-07-31T01:59:55;15.80;99.90
10980;DHT22;5543;51.734;8.744;2023-07-31T02:02:24;15.80;99.90
10980;DHT22;5543;51.734;8.744;2023-07-31T02:04:52;15.80;99.90
10980;DHT22;5543;51.734;8.744;2023-07-31T02:07:20;15.80;99.90
10980;DHT22;5543;51.734;8.744;2023-07-31T02:09:48;15.70;99.90
10980;DHT22;5543;51.734;8.744;2023-07-31T02:12:16;15.70;99.90
10980;DHT22;5543;51.734;8.744;2023-07-31T02:14:44;15.80;99.90
10980;DHT22;5543;51.734;8.744;2023-07-31T02:17:13;15.60;99.90
10980;DHT22;5543;51.734;8.744;2023-07-31T02:19:41;15.50;99.90
10980;DHT22;5543;51.734;8.744;2023-07-31T02:22:10;15.50;99.90
10980;DHT22;5543;51.734;8.744;2023-07-31T02:24:38;15.50;99.90
10980;DHT22;5543;51.734;8.744;2023-07-31T02:27:06;15.50;99.90
10980;DHT22;5543;51.734;8.744;2023-07-31T02:29:34;15.50;99.90
10980;DHT22;5543;51.734;8.744;2023-07-31T02:32:03;15.40;99.90
10980;DHT22;5543;51.734;8.744;2023-07-31T02:34:32;15.40;99.90
10980;DHT22;5543;51.734;8.744;2023-07-31T02:37:01;15.40;99.90
10980;DHT22;5543;51.734;8.744;2023-07-31T02:39:29;15.40;99.90
10980;DHT22;5543;51.734;8.744;2023-07-31T02:41:57;15.40;99.90
10980;DHT22;5543;51.734;8.744;2023-07-31T02:44:25;15.30;99.90
10980;DHT22;5543;51.734;8.744;2023-07-31T02:46:53;15.30;99.90
10980;DHT22;5543;51.734;8.744;2023-07-31T02:49:21;15.30;99.90
10980;DHT22;5543;51.734;8.744;2023-07-31T02:51:51;15.30;99.90
10980;DHT22;5543;51.734;8.744;2023-07-31T02:54:19;15.30;99.90
10980;DHT22;5543;51.734;8.744;2023-07-31T02:56:48;15.30;99.90
10980;DHT22;5543;51.734;8.744;2023-07-31T02:59:17;15.30;99.90
10980;DHT22;5543;51.734;8.744;2023-07-31T03:01:45;15.30;99.90
10980;DHT22;5543;51.734;8.744;2023-07-31T03:04:13;15.30;99.90
10980;DHT22;5543;51.734;8.744;2023-07-31T03:06:44;15.40;99.90
10980;DHT22;5543;51.734;8.744;2023-07-31T03:09:14;15.40;99.90
10980;DHT22;5543;51.734;8.744;2023-07-31T03:11:42;15.40;99.90
10980;DHT22;5543;51.734;8.744;2023-07-31T03:14:10;15.50;99.90
10980;DHT22;5543;51.734;8.744;2023-07-31T03:16:38;15.50;99.90
10980;DHT22;5543;51.734;8.744;2023-07-31T03:19:07;15.60;99.90
10980;DHT22;5543;51.734;8.744;2023-07-31T03:21:35;15.60;99.90
10980;DHT22;5543;51.734;8.744;2023-07-31T03:24:03;15.60;99.90
10980;DHT22;5543;51.734;8.744;2023-07-31T03:26:33;15.60;99.90
10980;DHT22;5543;51.734;8.744;2023-07-31T03:29:03;15.60;99.90
10980;DHT22;5543;51.734;8.744;2023-07-31T03:31:31;15.60;99.90
10980;DHT22;5543;51.734;8.744;2023-07-31T03:33:59;15.50;99.90
10980;DHT22;5543;51.734;8.744;2023-07-31T03:36:28;15.60;99.90
10980;DHT22;5543;51.734;8.744;2023-07-31T03:38:57;15.60;99.90
10980;DHT22;5543;51.734;8.744;2023-07-31T03:41:25;15.60;99.90
10980;DHT22;5543;51.734;8.744;2023-07-31T03:43:54;15.60;99.90
10980;DHT22;5543;51.734;8.744;2023-07-31T03:46:23;15.60;99.90
10980;DHT22;5543;51.734;8.744;2023-07-31T03:48:52;15.60;99.90
10980;DHT22;5543;51.734;8.744;2023-07-31T03:51:20;15.60;99.90
10980;DHT22;5543;51.734;8.744;2023-07-31T03:53:48;15.60;99.90
10980;DHT22;5543;51.734;8.744;2023-07-31T03:56:16;15.60;99.90
10980;DHT22;5543;51.734;8.744;2023-07-31T03:58:44;15.60;99.90
10980;DHT22;5543;51.734;8.744;2023-07-31T04:01:13;15.60;99.90
10980;DHT22;5543;51.734;8.744;2023-07-31T04:03:41;15.60;99.90
10980;DHT22;5543;51.734;8.744;2023-07-31T04:06:09;15.60;99.90
10980;DHT22;5543;51.734;8.744;2023-07-31T04:08:37;15.60;99.90
10980;DHT22;5543;51.734;8.744;2023-07-31T04:11:05;15.60;99.90
10980;DHT22;5543;51.734;8.744;2023-07-31T04:13:34;15.60;99.90
10980;DHT22;5543;51.734;8.744;2023-07-31T04:16:02;15.60;99.90
10980;DHT22;5543;51.734;8.744;2023-07-31T04:18:32;15.60;99.90
10980;DHT22;5543;51.734;8.744;2023-07-31T04:21:00;15.60;99.90
10980;DHT22;5543;51.734;8.744;2023-07-31T04:23:29;15.60;99.90
10980;DHT22;5543;51.734;8.744;2023-07-31T04:25:57;15.60;99.90
10980;DHT22;5543;51.734;8.744;2023-07-31T04:28:25;15.60;99.90
10980;DHT22;5543;51.734;8.744;2023-07-31T04:30:53;15.90;99.90
10980;DHT22;5543;51.734;8.744;2023-07-31T04:33:22;15.60;99.90
10980;DHT22;5543;51.734;8.744;2023-07-31T04:35:52;15.60;99.90
10980;DHT22;5543;51.734;8.744;2023-07-31T04:38:20;15.60;99.90
10980;DHT22;5543;51.734;8.744;2023-07-31T04:40:49;15.50;99.90
10980;DHT22;5543;51.734;8.744;2023-07-31T04:43:17;15.60;99.90
10980;DHT22;5543;51.734;8.744;2023-07-31T04:45:46;15.70;99.90
10980;DHT22;5543;51.734;8.744;2023-07-31T04:48:15;15.60;99.90
10980;DHT22;5543;51.734;8.744;2023-07-31T04:50:43;15.60;99.90
10980;DHT22;5543;51.734;8.744;2023-07-31T04:53:12;15.60;99.90
10980;DHT22;5543;51.734;8.744;2023-07-31T04:55:40;15.60;99.90
10980;DHT22;5543;51.734;8.744;2023-07-31T04:58:08;15.60;99.90
10980;DHT22;5543;51.734;8.744;2023-07-31T05:00:37;15.60;99.90
10980;DHT22;5543;51.734;8.744;2023-07-31T05:03:05;15.60;99.90
10980;DHT22;5543;51.734;8.744;2023-07-31T05:05:34;15.60;99.90
10980;DHT22;5543;51.734;8.744;2023-07-31T05:08:02;15.60;99.90
10980;DHT22;5543;51.734;8.744;2023-07-31T05:10:32;15.60;99.90
10980;DHT22;5543;51.734;8.744;2023-07-31T05:13:00;15.60;99.90
10980;DHT22;5543;51.734;8.744;2023-07-31T05:15:28;15.70;99.90
10980;DHT22;5543;51.734;8.744;2023-07-31T05:17:56;15.70;99.90
10980;DHT22;5543;51.734;8.744;2023-07-31T05:20:24;15.70;99.90
10980;DHT22;5543;51.734;8.744;2023-07-31T05:22:54;15.80;99.90
10980;DHT22;5543;51.734;8.744;2023-07-31T05:25:22;15.80;99.90
10980;DHT22;5543;51.734;8.744;2023-07-31T05:27:51;15.90;99.90
10980;DHT22;5543;51.734;8.744;2023-07-31T05:30:20;15.90;99.90
10980;DHT22;5543;51.734;8.744;2023-07-31T05:32:48;15.90;99.90
10980;DHT22;5543;51.734;8.744;2023-07-31T05:35:16;15.90;99.90
10980;DHT22;5543;51.734;8.744;2023-07-31T05:37:44;16.00;99.90
10980;DHT22;5543;51.734;8.744;2023-07-31T05:40:13;16.00;99.90
10980;DHT22;5543;51.734;8.744;2023-07-31T05:42:41;16.00;99.90
10980;DHT22;5543;51.734;8.744;2023-07-31T05:45:11;16.00;99.90
10980;DHT22;5543;51.734;8.744;2023-07-31T05:47:40;16.10;99.90
10980;DHT22;5543;51.734;8.744;2023-07-31T05:50:09;16.10;99.90
10980;DHT22;5543;51.734;8.744;2023-07-31T05:52:37;16.10;99.90
10980;DHT22;5543;51.734;8.744;2023-07-31T05:55:05;16.10;99.90
10980;DHT22;5543;51.734;8.744;2023-07-31T05:57:34;16.10;99.90
10980;DHT22;5543;51.734;8.744;2023-07-31T06:00:03;16.20;99.90
10980;DHT22;5543;51.734;8.744;2023-07-31T06:02:33;16.20;99.90
10980;DHT22;5543;51.734;8.744;2023-07-31T06:05:04;16.20;99.90
10980;DHT22;5543;51.734;8.744;2023-07-31T06:07:33;16.20;99.90
10980;DHT22;5543;51.734;8.744;2023-07-31T06:10:01;16.20;99.90
10980;DHT22;5543;51.734;8.744;2023-07-31T06:12:31;16.20;99.90
10980;DHT22;5543;51.734;8.744;2023-07-31T06:15:00;16.20;99.90
10980;DHT22;5543;51.734;8.744;2023-07-31T06:17:28;16.20;99.90
10980;DHT22;5543;51.734;8.744;2023-07-31T06:19:57;16.30;99.90
10980;DHT22;5543;51.734;8.744;2023-07-31T06:22:25;16.30;99.90
10980;DHT22;5543;51.734;8.744;2023-07-31T06:24:53;16.30;99.90
10980;DHT22;5543;51.734;8.744;2023-07-31T06:27:22;16.40;99.90
10980;DHT22;5543;51.734;8.744;2023-07-31T06:29:50;16.40;99.90
10980;DHT22;5543;51.734;8.744;2023-07-31T06:32:20;16.40;99.90
10980;DHT22;5543;51.734;8.744;2023-07-31T06:34:48;16.40;99.90
10980;DHT22;5543;51.734;8.744;2023-07-31T06:37:18;16.40;99.90
10980;DHT22;5543;51.734;8.744;2023-07-31T06:39:46;16.50;99.90
10980;DHT22;5543;51.734;8.744;2023-07-31T06:42:15;16.50;99.90
10980;DHT22;5543;51.734;8.744;2023-07-31T06:44:43;16.50;99.90
10980;DHT22;5543;51.734;8.744;2023-07-31T06:47:11;16.50;99.90
10980;DHT22;5543;51.734;8.744;2023-07-31T06:49:39;16.50;99.90
10980;DHT22;5543;51.734;8.744;2023-07-31T06:52:07;16.50;99.90
10980;DHT22;5543;51.734;8.744;2023-07-31T06:54:37;16.50;99.90
10980;DHT22;5543;51.734;8.744;2023-07-31T06:57:06;16.50;99.90
10980;DHT22;5543;51.734;8.744;2023-07-31T06:59:34;16.50;99.90
10980;DHT22;5543;51.734;8.744;2023-07-31T07:02:03;16.40;99.90
10980;DHT22;5543;51.734;8.744;2023-07-31T07:04:33;16.50;99.90
10980;DHT22;5543;51.734;8.744;2023-07-31T07:07:01;16.40;99.90
10980;DHT22;5543;51.734;8.744;2023-07-31T07:09:29;16.40;99.90
10980;DHT22;5543;51.734;8.744;2023-07-31T07:11:58;16.50;99.90
10980;DHT22;5543;51.734;8.744;2023-07-31T07:14:26;16.50;99.90
10980;DHT22;5543;51.734;8.744;2023-07-31T07:16:55;16.50;99.90
10980;DHT22;5543;51.734;8.744;2023-07-31T07:19:23;16.40;99.90
10980;DHT22;5543;51.734;8.744;2023-07-31T07:21:51;16.40;99.90
10980;DHT22;5543;51.734;8.744;2023-07-31T07:24:19;16.40;99.90
10980;DHT22;5543;51.734;8.744;2023-07-31T07:26:47;16.40;99.90
10980;DHT22;5543;51.734;8.744;2023-07-31T07:29:16;16.30;99.90
10980;DHT22;5543;51.734;8.744;2023-07-31T07:31:44;16.50;99.90
10980;DHT22;5543;51.734;8.744;2023-07-31T07:34:13;16.50;99.90
10980;DHT22;5543;51.734;8.744;2023-07-31T07:36:41;16.50;99.90
10980;DHT22;5543;51.734;8.744;2023-07-31T07:39:10;16.50;99.90
10980;DHT22;5543;51.734;8.744;2023-07-31T07:41:38;16.60;99.90
10980;DHT22;5543;51.734;8.744;2023-07-31T07:44:08;16.60;99.90
10980;DHT22;5543;51.734;8.744;2023-07-31T07:46:39;16.70;99.90
10980;DHT22;5543;51.734;8.744;2023-07-31T07:49:08;16.60;99.90
10980;DHT22;5543;51.734;8.744;2023-07-31T07:51:36;16.60;99.90
10980;DHT22;5543;51.734;8.744;2023-07-31T07:54:04;16.60;99.90
10980;DHT22;5543;51.734;8.744;2023-07-31T07:56:33;16.60;99.90
10980;DHT22;5543;51.734;8.744;2023-07-31T07:59:04;16.50;99.90
10980;DHT22;5543;51.734;8.744;2023-07-31T08:01:32;16.50;99.90
10980;DHT22;5543;51.734;8.744;2023-07-31T08:04:02;16.50;99.90
10980;DHT22;5543;51.734;8.744;2023-07-31T08:06:30;16.50;99.90
10980;DHT22;5543;51.734;8.744;2023-07-31T08:08:59;16.50;99.90
10980;DHT22;5543;51.734;8.744;2023-07-31T08:11:32;16.50;99.90
10980;DHT22;5543;51.734;8.744;2023-07-31T08:14:00;16.50;99.90
10980;DHT22;5543;51.734;8.744;2023-07-31T08:16:28;16.50;99.90
10980;DHT22;5543;51.734;8.744;2023-07-31T08:18:57;16.50;99.90
10980;DHT22;5543;51.734;8.744;2023-07-31T08:21:27;16.60;99.90
10980;DHT22;5543;51.734;8.744;2023-07-31T08:23:55;16.70;99.90
10980;DHT22;5543;51.734;8.744;2023-07-31T08:26:23;16.80;99.90
10980;DHT22;5543;51.734;8.744;2023-07-31T08:28:51;16.80;99.90
10980;DHT22;5543;51.734;8.744;2023-07-31T08:31:19;16.90;99.90
10980;DHT22;5543;51.734;8.744;2023-07-31T08:33:48;17.00;99.90
10980;DHT22;5543;51.734;8.744;2023-07-31T08:36:16;17.10;99.90
10980;DHT22;5543;51.734;8.744;2023-07-31T08:38:46;17.20;99.90
10980;DHT22;5543;51.734;8.744;2023-07-31T08:41:15;17.20;99.90
10980;DHT22;5543;51.734;8.744;2023-07-31T08:43:45;17.30;99.90
10980;DHT22;5543;51.734;8.744;2023-07-31T08:46:14;17.30;99.90
10980;DHT22;5543;51.734;8.744;2023-07-31T08:48:43;17.40;99.90
10980;DHT22;5543;51.734;8.744;2023-07-31T08:51:13;17.50;99.90
10980;DHT22;5543;51.734;8.744;2023-07-31T08:53:41;17.50;99.90
10980;DHT22;5543;51.734;8.744;2023-07-31T08:56:11;17.50;99.90
10980;DHT22;5543;51.734;8.744;2023-07-31T08:58:42;17.50;99.90
10980;DHT22;5543;51.734;8.744;2023-07-31T09:01:11;17.50;99.90
10980;DHT22;5543;51.734;8.744;2023-07-31T09:03:40;17.40;99.90
10980;DHT22;5543;51.734;8.744;2023-07-31T09:06:10;17.40;99.90
10980;DHT22;5543;51.734;8.744;2023-07-31T09:08:40;17.40;99.90
10980;DHT22;5543;51.734;8.744;2023-07-31T09:11:11;17.40;99.90
10980;DHT22;5543;51.734;8.744;2023-07-31T09:13:40;17.40;99.90
10980;DHT22;5543;51.734;8.744;2023-07-31T09:16:09;17.30;99.90
10980;DHT22;5543;51.734;8.744;2023-07-31T09:18:53;17.30;99.90
10980;DHT22;5543;51.734;8.744;2023-07-31T09:21:24;17.40;99.90
10980;DHT22;5543;51.734;8.744;2023-07-31T09:23:52;17.10;99.90
10980;DHT22;5543;51.734;8.744;2023-07-31T09:26:33;17.40;99.90
10980;DHT22;5543;51.734;8.744;2023-07-31T09:29:04;17.50;99.90
10980;DHT22;5543;51.734;8.744;2023-07-31T09:31:41;17.50;99.90
10980;DHT22;5543;51.734;8.744;2023-07-31T09:34:10;17.70;99.90
10980;DHT22;5543;51.734;8.744;2023-07-31T09:36:41;17.60;99.90
10980;DHT22;5543;51.734;8.744;2023-07-31T09:39:10;17.80;99.90
10980;DHT22;5543;51.734;8.744;2023-07-31T09:41:42;17.90;99.90
10980;DHT22;5543;51.734;8.744;2023-07-31T09:44:11;18.00;99.90
10980;DHT22;5543;51.734;8.744;2023-07-31T09:46:39;18.10;99.90
10980;DHT22;5543;51.734;8.744;2023-07-31T09:49:08;18.10;99.90
10980;DHT22;5543;51.734;8.744;2023-07-31T09:51:37;18.10;99.90
10980;DHT22;5543;51.734;8.744;2023-07-31T09:54:12;18.10;99.90
10980;DHT22;5543;51.734;8.744;2023-07-31T09:56:44;18.20;99.90
10980;DHT22;5543;51.734;8.744;2023-07-31T09:59:13;18.30;99.90
10980;DHT22;5543;51.734;8.744;2023-07-31T10:01:42;18.50;99.90
10980;DHT22;5543;51.734;8.744;2023-07-31T10:04:11;18.60;99.90
10980;DHT22;5543;51.734;8.744;2023-07-31T10:06:40;18.80;99.90
10980;DHT22;5543;51.734;8.744;2023-07-31T10:09:12;18.70;99.90
10980;DHT22;5543;51.734;8.744;2023-07-31T10:11:47;19.00;99.90
10980;DHT22;5543;51.734;8.744;2023-07-31T10:14:18;18.80;99.90
10980;DHT22;5543;51.734;8.744;2023-07-31T10:16:47;19.10;99.90
10980;DHT22;5543;51.734;8.744;2023-07-31T10:19:16;19.10;99.90
10980;DHT22;5543;51.734;8.744;2023-07-31T10:21:46;19.10;99.90
10980;DHT22;5543;51.734;8.744;2023-07-31T10:24:16;19.00;99.90
10980;DHT22;5543;51.734;8.744;2023-07-31T10:26:47;19.00;99.90
10980;DHT22;5543;51.734;8.744;2023-07-31T10:29:17;19.00;99.90
10980;DHT22;5543;51.734;8.744;2023-07-31T10:31:46;18.90;99.90
10980;DHT22;5543;51.734;8.744;2023-07-31T10:34:15;18.80;99.90
10980;DHT22;5543;51.734;8.744;2023-07-31T10:36:44;18.80;99.90
10980;DHT22;5543;51.734;8.744;2023-07-31T10:39:33;18.80;99.90
10980;DHT22;5543;51.734;8.744;2023-07-31T10:42:11;18.70;99.90
10980;DHT22;5543;51.734;8.744;2023-07-31T10:44:44;18.70;99.90
10980;DHT22;5543;51.734;8.744;2023-07-31T10:47:14;18.70;99.90
10980;DHT22;5543;51.734;8.744;2023-07-31T10:49:45;18.60;99.90
10980;DHT22;5543;51.734;8.744;2023-07-31T10:52:19;18.30;99.90
10980;DHT22;5543;51.734;8.744;2023-07-31T10:57:57;18.20;99.90
10980;DHT22;5543;51.734;8.744;2023-07-31T11:00:27;18.20;99.90
10980;DHT22;5543;51.734;8.744;2023-07-31T11:03:03;18.20;99.90
10980;DHT22;5543;51.734;8.744;2023-07-31T11:05:46;18.20;99.90
10980;DHT22;5543;51.734;8.744;2023-07-31T11:08:16;18.20;99.90
10980;DHT22;5543;51.734;8.744;2023-07-31T11:10:47;18.20;99.90
10980;DHT22;5543;51.734;8.744;2023-07-31T11:13:16;18.30;99.90
10980;DHT22;5543;51.734;8.744;2023-07-31T11:15:45;18.50;99.90
10980;DHT22;5543;51.734;8.744;2023-07-31T11:18:13;18.60;99.90
10980;DHT22;5543;51.734;8.744;2023-07-31T11:20:42;18.60;99.90
10980;DHT22;5543;51.734;8.744;2023-07-31T11:23:11;18.60;99.90
10980;DHT22;5543;51.734;8.744;2023-07-31T11:25:39;18.70;99.90
10980;DHT22;5543;51.734;8.744;2023-07-31T11:28:09;18.70;99.90
10980;DHT22;5543;51.734;8.744;2023-07-31T11:30:40;18.80;99.90
10980;DHT22;5543;51.734;8.744;2023-07-31T11:33:09;18.80;99.90
10980;DHT22;5543;51.734;8.744;2023-07-31T11:35:41;18.90;99.90
10980;DHT22;5543;51.734;8.744;2023-07-31T11:38:12;19.00;99.90
10980;DHT22;5543;51.734;8.744;2023-07-31T11:40:43;18.90;99.90
10980;DHT22;5543;51.734;8.744;2023-07-31T11:43:12;18.80;99.90
10980;DHT22;5543;51.734;8.744;2023-07-31T11:45:47;18.80;99.90
10980;DHT22;5543;51.734;8.744;2023-07-31T11:48:20;18.60;99.90
10980;DHT22;5543;51.734;8.744;2023-07-31T11:50:49;18.60;99.90
10980;DHT22;5543;51.734;8.744;2023-07-31T11:53:21;18.50;99.90
10980;DHT22;5543;51.734;8.744;2023-07-31T11:55:51;18.60;99.90
10980;DHT22;5543;51.734;8.744;2023-07-31T11:58:20;18.60;99.90
10980;DHT22;5543;51.734;8.744;2023-07-31T12:00:50;18.60;99.90
10980;DHT22;5543;51.734;8.744;2023-07-31T12:03:18;18.60;99.90
10980;DHT22;5543;51.734;8.744;2023-07-31T12:05:47;18.60;99.90
10980;DHT22;5543;51.734;8.744;2023-07-31T12:08:16;18.70;99.90
10980;DHT22;5543;51.734;8.744;2023-07-31T12:10:44;18.70;99.90
10980;DHT22;5543;51.734;8.744;2023-07-31T12:13:20;18.60;99.90
10980;DHT22;5543;51.734;8.744;2023-07-31T12:15:54;18.60;99.90
10980;DHT22;5543;51.734;8.744;2023-07-31T12:18:24;18.60;99.90
10980;DHT22;5543;51.734;8.744;2023-07-31T12:20:55;18.60;99.90
10980;DHT22;5543;51.734;8.744;2023-07-31T12:23:26;18.60;99.90
10980;DHT22;5543;51.734;8.744;2023-07-31T12:26:02;18.60;99.90
10980;DHT22;5543;51.734;8.744;2023-07-31T12:28:30;18.70;99.90
10980;DHT22;5543;51.734;8.744;2023-07-31T12:31:04;18.80;99.90
10980;DHT22;5543;51.734;8.744;2023-07-31T12:33:34;18.90;99.90
10980;DHT22;5543;51.734;8.744;2023-07-31T12:36:03;19.10;99.90
10980;DHT22;5543;51.734;8.744;2023-07-31T12:38:31;19.10;99.90
10980;DHT22;5543;51.734;8.744;2023-07-31T12:41:00;19.10;99.90
10980;DHT22;5543;51.734;8.744;2023-07-31T12:43:28;19.00;99.90
10980;DHT22;5543;51.734;8.744;2023-07-31T12:45:56;19.00;99.90
10980;DHT22;5543;51.734;8.744;2023-07-31T12:48:26;18.90;99.90
10980;DHT22;5543;51.734;8.744;2023-07-31T12:50:54;18.80;99.90
10980;DHT22;5543;51.734;8.744;2023-07-31T12:53:22;18.70;99.90
10980;DHT22;5543;51.734;8.744;2023-07-31T12:55:50;18.60;99.90
10980;DHT22;5543;51.734;8.744;2023-07-31T12:58:18;18.50;99.90
10980;DHT22;5543;51.734;8.744;2023-07-31T13:00:47;18.50;99.90
10980;DHT22;5543;51.734;8.744;2023-07-31T13:03:15;18.40;99.90
10980;DHT22;5543;51.734;8.744;2023-07-31T13:05:44;18.40;99.90
10980;DHT22;5543;51.734;8.744;2023-07-31T13:08:13;18.30;99.90
10980;DHT22;5543;51.734;8.744;2023-07-31T13:10:42;18.20;99.90
10980;DHT22;5543;51.734;8.744;2023-07-31T13:13:11;18.30;99.90
10980;DHT22;5543;51.734;8.744;2023-07-31T13:15:39;18.30;99.90
10980;DHT22;5543;51.734;8.744;2023-07-31T13:18:07;18.30;99.90
10980;DHT22;5543;51.734;8.744;2023-07-31T13:20:35;18.40;99.90
10980;DHT22;5543;51.734;8.744;2023-07-31T13:23:05;18.40;99.90
10980;DHT22;5543;51.734;8.744;2023-07-31T13:25:34;18.50;99.90
10980;DHT22;5543;51.734;8.744;2023-07-31T13:28:02;18.60;99.90
10980;DHT22;5543;51.734;8.744;2023-07-31T13:30:30;18.70;99.90
10980;DHT22;5543;51.734;8.744;2023-07-31T13:32:58;18.70;99.90
10980;DHT22;5543;51.734;8.744;2023-07-31T13:35:27;18.70;99.90
10980;DHT22;5543;51.734;8.744;2023-07-31T13:37:55;18.80;99.90
10980;DHT22;5543;51.734;8.744;2023-07-31T13:40:24;18.90;99.90
10980;DHT22;5543;51.734;8.744;2023-07-31T13:42:52;19.00;99.90
10980;DHT22;5543;51.734;8.744;2023-07-31T13:45:21;19.20;99.90
10980;DHT22;5543;51.734;8.744;2023-07-31T13:47:50;19.20;99.90
10980;DHT22;5543;51.734;8.744;2023-07-31T13:50:18;19.70;99.90
10980;DHT22;5543;51.734;8.744;2023-07-31T13:52:48;19.80;99.90
10980;DHT22;5543;51.734;8.744;2023-07-31T13:55:16;19.80;99.90
10980;DHT22;5543;51.734;8.744;2023-07-31T13:57:45;19.90;99.90
10980;DHT22;5543;51.734;8.744;2023-07-31T14:00:14;19.90;99.90
10980;DHT22;5543;51.734;8.744;2023-07-31T14:02:42;19.90;99.90
10980;DHT22;5543;51.734;8.744;2023-07-31T14:05:11;19.80;99.90
10980;DHT22;5543;51.734;8.744;2023-07-31T14:07:39;19.70;99.90
10980;DHT22;5543;51.734;8.744;2023-07-31T14:10:08;19.60;99.90
10980;DHT22;5543;51.734;8.744;2023-07-31T14:12:36;19.50;99.90
10980;DHT22;5543;51.734;8.744;2023-07-31T14:15:10;19.40;99.90
10980;DHT22;5543;51.734;8.744;2023-07-31T14:17:39;19.30;99.90
10980;DHT22;5543;51.734;8.744;2023-07-31T14:20:09;19.20;99.90
10980;DHT22;5543;51.734;8.744;2023-07-31T14:22:38;19.10;99.90
10980;DHT22;5543;51.734;8.744;2023-07-31T14:25:07;19.10;99.90
10980;DHT22;5543;51.734;8.744;2023-07-31T14:27:37;19.10;99.90
10980;DHT22;5543;51.734;8.744;2023-07-31T14:30:07;19.00;99.90
10980;DHT22;5543;51.734;8.744;2023-07-31T14:32:36;18.90;99.90
10980;DHT22;5543;51.734;8.744;2023-07-31T14:35:05;18.90;99.90
10980;DHT22;5543;51.734;8.744;2023-07-31T14:37:37;18.90;99.90
10980;DHT22;5543;51.734;8.744;2023-07-31T14:40:06;18.80;99.90
10980;DHT22;5543;51.734;8.744;2023-07-31T14:42:35;18.80;99.90
10980;DHT22;5543;51.734;8.744;2023-07-31T14:45:06;18.70;99.90
10980;DHT22;5543;51.734;8.744;2023-07-31T14:47:36;18.70;99.90
10980;DHT22;5543;51.734;8.744;2023-07-31T14:50:05;18.60;99.90
10980;DHT22;5543;51.734;8.744;2023-07-31T14:52:33;18.60;99.90
10980;DHT22;5543;51.734;8.744;2023-07-31T14:55:02;18.60;99.90
10980;DHT22;5543;51.734;8.744;2023-07-31T14:57:30;18.60;99.90
10980;DHT22;5543;51.734;8.744;2023-07-31T14:59:58;18.60;99.90
10980;DHT22;5543;51.734;8.744;2023-07-31T15:02:27;18.70;99.90
10980;DHT22;5543;51.734;8.744;2023-07-31T15:04:56;18.80;99.90
10980;DHT22;5543;51.734;8.744;2023-07-31T15:07:25;19.00;99.90
10980;DHT22;5543;51.734;8.744;2023-07-31T15:09:53;18.90;99.90
10980;DHT22;5543;51.734;8.744;2023-07-31T15:12:21;18.90;99.90
10980;DHT22;5543;51.734;8.744;2023-07-31T15:14:50;19.10;99.90
10980;DHT22;5543;51.734;8.744;2023-07-31T15:17:18;19.20;99.90
10980;DHT22;5543;51.734;8.744;2023-07-31T15:19:47;19.20;99.90
10980;DHT22;5543;51.734;8.744;2023-07-31T15:22:16;19.20;99.90
10980;DHT22;5543;51.734;8.744;2023-07-31T15:24:45;19.20;99.90
10980;DHT22;5543;51.734;8.744;2023-07-31T15:27:13;19.20;99.90
10980;DHT22;5543;51.734;8.744;2023-07-31T15:29:41;19.20;99.90
10980;DHT22;5543;51.734;8.744;2023-07-31T15:32:09;19.30;99.90
10980;DHT22;5543;51.734;8.744;2023-07-31T15:34:37;19.20;99.90
10980;DHT22;5543;51.734;8.744;2023-07-31T15:37:06;19.30;99.90
10980;DHT22;5543;51.734;8.744;2023-07-31T15:39:35;19.20;99.90
10980;DHT22;5543;51.734;8.744;2023-07-31T15:42:04;19.30;99.90
10980;DHT22;5543;51.734;8.744;2023-07-31T15:44:32;19.20;99.90
10980;DHT22;5543;51.734;8.744;2023-07-31T15:47:00;19.30;99.90
10980;DHT22;5543;51.734;8.744;2023-07-31T15:49:28;19.30;99.90
10980;DHT22;5543;51.734;8.744;2023-07-31T15:51:57;19.40;99.90
10980;DHT22;5543;51.734;8.744;2023-07-31T15:54:25;19.40;99.90
10980;DHT22;5543;51.734;8.744;2023-07-31T15:56:54;19.40;99.90
10980;DHT22;5543;51.734;8.744;2023-07-31T15:59:23;19.40;99.90